Lyons, Illinois
Current Conditions -  °F | °C
As of 4:04 PM on Thursday 27 Nov 2014 (Local Time) from KMDW Reporting Station
Light Snow Light Snow  
Wind Chill: 16°   Ceiling: 3800
Heat Index: 25°   Visibility: 9mi
Dew Point: 15°   Wind: 9mph
Humidity: 66%   Direction: 310°NW
Pressure: 30.38"   Gusts: NA
Location:  41.82°N, 87.81°W
Report Text: KMDW 272204Z 31008KT 9SM -SN SCT029 OVC038 M04/M09 A3038 RMK AO2 P0000 T10391094
Loading
Personal Weather Stations






























Interactive Weather Map New forecast layout! Learn more

10-Day Weather Forecast

Advertisements
Track Severe Weather on mobile